Time;durP1;ratioP1;P1;durP2;ratioP2;P2;SDS_P1;SDS_P2;PMS_P1;PMS_P2;Temp;Humidity;BMP_temperature;BMP_pressure;BME280_temperature;BME280_humidity;BME280_pressure;Samples;Min_cycle;Max_cycle;Signal;HPM_P1;HPM_P2
2022/08/17 00:00:40;;;;;;;32.28;27.05;;;;;;;24.08;64.51;100977.53;4995270;28;20034;-54
2022/08/17 00:03:16;;;;;;;33.88;27.45;;;;;;;24.07;64.34;100972.31;5000783;28;20037;-50
2022/08/17 00:06:10;;;;;;;33.17;27.58;;;;;;;24.08;64.23;100971.41;4999801;28;20052;-54
2022/08/17 00:08:53;;;;;;;34.10;27.25;;;;;;;24.05;64.49;100958.38;5001516;28;20037;-53
2022/08/17 00:11:24;;;;;;;31.92;27.48;;;;;;;24.01;65.05;100960.19;5001280;28;20025;-54
2022/08/17 00:13:58;;;;;;;31.40;28.00;;;;;;;24.04;64.47;100965.38;4999302;28;20037;-54
2022/08/17 00:16:30;;;;;;;34.40;28.13;;;;;;;24.01;64.70;100951.47;5003743;28;20030;-52
2022/08/17 00:18:59;;;;;;;33.95;28.13;;;;;;;23.95;65.30;100951.63;5001428;28;20022;-53
2022/08/17 00:21:26;;;;;;;32.67;28.80;;;;;;;23.96;64.96;100959.44;5000083;28;20041;-55
2022/08/17 00:23:52;;;;;;;31.55;27.65;;;;;;;24.01;64.74;100961.97;5002467;28;20058;-55
2022/08/17 00:26:19;;;;;;;31.98;26.58;;;;;;;23.98;64.83;100959.44;5001831;28;20036;-54
2022/08/17 00:28:44;;;;;;;35.72;29.00;;;;;;;23.90;65.18;100950.88;5000654;28;20045;-55
2022/08/17 00:31:11;;;;;;;31.77;28.25;;;;;;;23.91;65.07;100942.97;5002475;28;20395;-52
2022/08/17 00:33:39;;;;;;;32.60;27.95;;;;;;;23.77;65.59;100931.94;4996160;28;20049;-55
2022/08/17 00:36:06;;;;;;;36.55;28.00;;;;;;;23.83;65.07;100926.53;5001185;28;20034;-52
2022/08/17 00:38:33;;;;;;;31.55;28.17;;;;;;;23.86;65.00;100923.84;5001576;28;20036;-52
2022/08/17 00:41:02;;;;;;;31.75;27.65;;;;;;;23.77;65.54;100924.06;4999621;28;20533;-51
2022/08/17 00:43:38;;;;;;;38.60;28.17;;;;;;;23.87;64.85;100924.72;5032003;28;20034;-56
2022/08/17 00:46:12;;;;;;;32.05;28.25;;;;;;;23.73;65.64;100922.44;5001124;28;20785;-55
2022/08/17 00:48:39;;;;;;;41.45;27.75;;;;;;;23.73;66.05;100917.19;4998995;28;20034;-52
2022/08/17 00:51:15;;;;;;;35.33;26.60;;;;;;;23.78;65.21;100917.91;4999546;28;20553;-53
2022/08/17 00:53:46;;;;;;;31.55;27.25;;;;;;;23.73;65.63;100917.19;5001175;28;20095;-53
2022/08/17 00:56:19;;;;;;;33.85;26.05;;;;;;;23.74;65.37;100916.28;4997003;28;20561;-55
2022/08/17 00:58:45;;;;;;;30.27;26.45;;;;;;;23.69;65.47;100913.78;4997114;28;20035;-49
2022/08/17 01:01:11;;;;;;;33.13;27.58;;;;;;;23.69;65.30;100921.66;5001523;28;20065;-54
2022/08/17 01:03:38;;;;;;;30.52;26.33;;;;;;;23.68;65.78;100913.81;4997049;28;20026;-55
2022/08/17 01:06:05;;;;;;;31.73;26.55;;;;;;;23.70;65.33;100922.50;5001531;28;20034;-52
2022/08/17 01:08:31;;;;;;;31.00;25.73;;;;;;;23.71;65.36;100921.59;4991915;28;20033;-52
2022/08/17 01:11:01;;;;;;;29.60;25.83;;;;;;;23.65;66.01;100924.38;5000515;28;20414;-55
2022/08/17 01:13:30;;;;;;;34.80;26.50;;;;;;;23.68;65.53;100921.69;4997731;28;20068;-55
2022/08/17 01:16:06;;;;;;;28.77;25.33;;;;;;;23.73;65.18;100923.31;5002825;28;20033;-53
2022/08/17 01:18:33;;;;;;;31.65;26.23;;;;;;;23.65;65.20;100909.50;4996104;28;20034;-54
2022/08/17 01:21:03;;;;;;;29.90;26.63;;;;;;;23.63;65.46;100910.44;5002605;28;20570;-53
2022/08/17 01:23:29;;;;;;;31.58;26.48;;;;;;;23.61;65.44;100912.22;4995707;28;20034;-54
2022/08/17 01:25:57;;;;;;;29.92;26.85;;;;;;;23.52;65.97;100910.66;5003790;28;20033;-54
2022/08/17 01:28:26;;;;;;;31.52;26.38;;;;;;;23.53;66.04;100910.63;4998856;28;20441;-51
2022/08/17 01:30:53;;;;;;;;;;;;;;;23.75;64.39;100903.13;5000927;28;20522;-50
2022/08/17 01:33:19;;;;;;;31.88;26.40;;;;;;;23.57;65.32;100903.53;4999111;28;19921;-55
2022/08/17 01:35:44;;;;;;;34.20;26.25;;;;;;;23.54;65.63;100896.63;5001265;28;20136;-53
2022/08/17 01:38:10;;;;;;;29.42;25.25;;;;;;;23.45;65.52;100895.97;4998634;28;20073;-54
2022/08/17 01:40:39;;;;;;;30.38;26.95;;;;;;;23.40;65.73;100897.84;4993574;28;20406;-53
2022/08/17 01:43:17;;;;;;;28.42;25.48;;;;;;;23.41;65.79;100897.81;4998517;28;20483;-54
2022/08/17 01:45:45;;;;;;;30.05;25.70;;;;;;;23.41;65.87;100886.44;4996817;28;20036;-54
2022/08/17 01:48:11;;;;;;;31.77;25.55;;;;;;;23.39;66.08;100894.38;4998879;28;21059;-53
2022/08/17 01:50:40;;;;;;;30.73;24.77;;;;;;;23.41;65.92;100891.69;5002823;28;20763;-54
2022/08/17 01:53:10;;;;;;;;;;;;;;;23.61;64.61;100896.47;4999123;28;20842;-54
2022/08/17 01:55:51;;;;;;;31.65;24.77;;;;;;;23.50;65.13;100888.84;4998857;28;19923;-55
2022/08/17 01:58:17;;;;;;;27.95;23.40;;;;;;;23.46;65.48;100887.19;5000252;28;20022;-54
2022/08/17 02:00:45;;;;;;;28.17;25.17;;;;;;;23.42;65.82;100896.94;5001014;28;20026;-53
2022/08/17 02:03:11;;;;;;;27.50;24.60;;;;;;;23.48;65.60;100899.41;4998825;28;20030;-55
2022/08/17 02:05:37;;;;;;;31.35;24.58;;;;;;;23.45;65.76;100904.72;4997211;28;20576;-54
2022/08/17 02:08:03;;;;;;;29.35;25.02;;;;;;;23.42;66.24;100893.41;5001400;28;20049;-54
2022/08/17 02:10:31;;;;;;;27.98;24.95;;;;;;;23.44;65.92;100889.88;4999474;28;20033;-52
2022/08/17 02:12:57;;;;;;;28.90;25.70;;;;;;;23.42;66.22;100894.31;5000194;28;20037;-51
2022/08/17 02:15:23;;;;;;;30.08;26.88;;;;;;;23.37;66.86;100887.44;4992503;28;20042;-54
2022/08/17 02:17:48;;;;;;;30.80;27.52;;;;;;;23.38;66.81;100887.41;4998006;28;20029;-54
2022/08/17 02:20:14;;;;;;;31.17;26.45;;;;;;;23.40;66.65;100889.97;4998672;28;20490;-54
2022/08/17 02:22:44;;;;;;;30.42;27.30;;;;;;;23.37;66.92;100888.31;4999899;28;20418;-53
2022/08/17 02:25:13;;;;;;;34.28;28.30;;;;;;;23.37;66.32;100885.69;4999962;28;20018;-52
2022/08/17 02:27:38;;;;;;;32.35;28.90;;;;;;;23.33;66.75;100889.25;5000695;28;20486;-55
2022/08/17 02:30:06;;;;;;;35.25;28.10;;;;;;;23.31;66.83;100891.06;4996392;28;20037;-54
2022/08/17 02:32:31;;;;;;;31.50;27.88;;;;;;;23.28;67.20;100884.13;4999039;28;20501;-55
2022/08/17 02:34:58;;;;;;;31.33;28.08;;;;;;;23.22;67.54;100891.28;4997972;28;20101;-54
2022/08/17 02:37:25;;;;;;;33.35;28.45;;;;;;;23.23;67.09;100891.22;4999646;28;20382;-52
2022/08/17 02:39:50;;;;;;;30.80;26.60;;;;;;;23.25;67.29;100893.84;5014416;28;20033;-54
2022/08/17 02:42:16;;;;;;;30.58;27.23;;;;;;;23.17;67.58;100894.00;4998648;28;20516;-54
2022/08/17 02:44:41;;;;;;;30.98;27.65;;;;;;;23.12;67.76;100889.78;4995703;28;20038;-54
2022/08/17 02:47:09;;;;;;;32.55;28.38;;;;;;;23.13;67.81;100887.13;4997321;28;20083;-55
2022/08/17 02:49:35;;;;;;;32.45;29.08;;;;;;;23.14;67.90;100882.75;4992214;28;20053;-53
2022/08/17 02:52:06;;;;;;;32.78;29.30;;;;;;;23.12;67.65;100874.06;4999364;28;20041;-54
2022/08/17 02:54:31;;;;;;;33.58;29.00;;;;;;;23.09;68.00;100874.09;4999452;28;20520;-55
2022/08/17 02:56:56;;;;;;;31.88;28.58;;;;;;;23.08;68.05;100877.63;4999260;28;20124;-51
2022/08/17 02:59:23;;;;;;;34.90;30.60;;;;;;;23.06;68.26;100872.44;4998516;28;20049;-53
2022/08/17 03:01:48;;;;;;;33.25;29.85;;;;;;;22.99;69.03;100871.72;4999068;28;20112;-53
2022/08/17 03:04:15;;;;;;;34.85;30.15;;;;;;;23.00;69.13;100872.56;4998469;28;20128;-55
2022/08/17 03:06:40;;;;;;;34.22;30.27;;;;;;;22.96;68.90;100861.28;4998887;28;20120;-55
2022/08/17 03:09:06;;;;;;;32.88;29.08;;;;;;;23.00;68.89;100862.09;4999259;28;20718;-51
2022/08/17 03:11:31;;;;;;;33.03;29.65;;;;;;;22.97;68.94;100864.75;4996772;28;20033;-54
2022/08/17 03:13:57;;;;;;;33.35;29.85;;;;;;;22.95;68.77;100864.81;5003760;28;20038;-55
2022/08/17 03:16:23;;;;;;;35.67;29.05;;;;;;;22.93;68.68;100860.47;5005082;28;20048;-54
2022/08/17 03:18:48;;;;;;;34.25;29.95;;;;;;;22.92;68.97;100864.88;5002369;28;20034;-52
2022/08/17 03:21:14;;;;;;;32.75;29.27;;;;;;;22.90;69.12;100856.19;5004190;28;20041;-54
2022/08/17 03:23:42;;;;;;;34.30;30.13;;;;;;;22.87;69.16;100861.50;4998725;28;20038;-54
2022/08/17 03:26:09;;;;;;;34.25;30.55;;;;;;;22.85;68.90;100863.25;5002252;28;20034;-53
2022/08/17 03:28:36;;;;;;;36.50;30.17;;;;;;;22.77;69.56;100862.56;5003261;28;20038;-55
2022/08/17 03:31:02;;;;;;;35.10;30.38;;;;;;;22.79;69.22;100857.28;5000503;28;20652;-53
2022/08/17 03:33:28;;;;;;;34.63;29.92;;;;;;;22.74;69.33;100860.84;5004424;28;20105;-53
2022/08/17 03:35:53;;;;;;;32.65;29.13;;;;;;;22.76;69.86;100860.84;5002506;28;20095;-53
2022/08/17 03:38:20;;;;;;;31.52;28.13;;;;;;;22.73;69.45;100860.91;5003269;28;20527;-54
2022/08/17 03:40:47;;;;;;;34.70;30.83;;;;;;;22.70;69.44;100863.59;5002824;28;20416;-51
2022/08/17 03:43:13;;;;;;;33.30;29.83;;;;;;;22.67;70.09;100863.66;5002311;28;20391;-55
2022/08/17 03:56:45;;;;;;;32.65;29.20;;;;;;;22.60;70.04;100870.78;4997669;28;20068;-53
2022/08/17 03:59:18;;;;;;;33.92;29.70;;;;;;;22.60;70.17;100878.66;5001575;28;20088;-55
2022/08/17 04:01:46;;;;;;;36.03;28.35;;;;;;;22.54;70.74;100877.94;5000487;28;20029;-54
2022/08/17 04:04:12;;;;;;;33.37;29.83;;;;;;;22.60;70.18;100883.03;5003879;28;20042;-53
2022/08/17 04:06:39;;;;;;;35.33;29.25;;;;;;;22.53;70.34;100887.53;5001049;28;20057;-55
2022/08/17 04:09:05;;;;;;;33.40;29.85;;;;;;;22.56;70.80;100886.59;5002639;28;20129;-54
2022/08/17 04:11:31;;;;;;;32.80;29.30;;;;;;;22.52;70.57;100887.59;5000232;28;20034;-54
2022/08/17 04:13:56;;;;;;;33.05;29.48;;;;;;;22.53;70.49;100900.66;5001836;28;20030;-55
2022/08/17 04:16:24;;;;;;;31.92;28.58;;;;;;;22.43;71.16;100912.19;5000369;28;20044;-54
2022/08/17 04:18:50;;;;;;;32.70;29.35;;;;;;;22.46;70.92;100928.75;4999392;28;20549;-51
2022/08/17 04:21:15;;;;;;;33.10;29.55;;;;;;;22.44;71.19;100940.97;5000656;28;20085;-54
2022/08/17 04:23:41;;;;;;;31.98;28.48;;;;;;;22.48;71.12;100939.19;4999645;28;20030;-55
2022/08/17 04:26:06;;;;;;;32.20;28.73;;;;;;;22.46;71.45;100930.50;5003791;28;20037;-50
2022/08/17 04:28:32;;;;;;;32.45;28.15;;;;;;;22.42;71.52;100927.06;5000849;28;20034;-55
2022/08/17 04:30:58;;;;;;;33.53;28.50;;;;;;;22.42;71.88;100923.59;4993140;28;20053;-53
2022/08/17 04:33:26;;;;;;;29.98;26.88;;;;;;;22.45;71.65;100927.00;5001623;28;20025;-54
2022/08/17 04:36:00;;;;;;;35.03;27.03;;;;;;;22.47;71.45;100934.84;5002918;28;20030;-54
2022/08/17 04:38:31;;;;;;;29.48;26.10;;;;;;;22.48;71.69;100940.03;5003661;28;20025;-55
2022/08/17 04:43:44;;;;;;;27.65;24.52;;;;;;;22.38;72.27;100935.88;5001063;28;20060;-53
2022/08/17 04:46:14;;;;;;;27.13;24.23;;;;;;;22.38;72.72;100935.00;4997188;28;20595;-49
2022/08/17 04:48:43;;;;;;;26.52;23.63;;;;;;;22.41;72.44;100933.19;4997423;28;20053;-55
2022/08/17 04:51:14;;;;;;;28.90;23.75;;;;;;;22.44;72.04;100933.13;5002538;28;20087;-55
2022/08/17 04:53:42;;;;;;;27.98;24.15;;;;;;;22.45;72.14;100942.75;4995914;28;20030;-55
2022/08/17 04:56:09;;;;;;;25.88;23.27;;;;;;;22.49;72.29;100961.88;5000276;28;20125;-54
2022/08/17 04:58:34;;;;;;;26.67;23.63;;;;;;;22.47;72.26;100993.34;4999202;28;20081;-53
2022/08/17 05:01:00;;;;;;;26.67;23.98;;;;;;;22.50;72.09;100981.94;4999326;28;20038;-53
2022/08/17 05:03:26;;;;;;;25.98;23.15;;;;;;;22.53;71.79;100963.53;5002581;28;20030;-54
2022/08/17 05:05:52;;;;;;;29.77;23.35;;;;;;;22.52;71.91;100964.44;4996230;28;20033;-49
2022/08/17 05:08:19;;;;;;;29.60;23.50;;;;;;;22.45;72.25;100961.06;4999651;28;20026;-49
2022/08/17 05:10:46;;;;;;;25.48;22.92;;;;;;;22.47;71.83;100946.19;5002011;28;20044;-53
2022/08/17 05:13:21;;;;;;;25.38;22.67;;;;;;;22.53;71.66;100953.06;5000632;28;20033;-54
2022/08/17 05:15:51;;;;;;;25.73;22.92;;;;;;;22.52;72.00;100940.00;4999388;28;20026;-55
2022/08/17 05:18:17;;;;;;;25.52;22.13;;;;;;;22.54;71.65;100953.91;4999697;28;20493;-52
2022/08/17 05:20:43;;;;;;;24.48;22.02;;;;;;;22.53;72.04;100957.44;4998101;28;20118;-55
2022/08/17 05:23:12;;;;;;;29.00;22.85;;;;;;;22.48;71.75;100953.16;4999108;28;20156;-53
2022/08/17 05:25:41;;;;;;;25.20;22.55;;;;;;;22.52;71.89;100963.59;5001235;28;20487;-53
2022/08/17 05:28:07;;;;;;;25.35;22.65;;;;;;;22.53;71.97;100962.69;4996364;28;20030;-51
2022/08/17 05:30:33;;;;;;;25.38;22.67;;;;;;;22.51;71.92;100961.81;4999248;28;20069;-55
2022/08/17 05:33:11;;;;;;;25.58;22.20;;;;;;;22.53;71.79;100945.19;4998621;28;20787;-54
2022/08/17 05:35:45;;;;;;;26.20;21.77;;;;;;;22.53;71.43;100945.19;4998315;28;20029;-52
2022/08/17 05:38:12;;;;;;;26.55;21.27;;;;;;;22.52;71.65;100947.84;4991632;28;20022;-52
2022/08/17 05:40:38;;;;;;;23.52;21.02;;;;;;;22.54;71.60;100941.69;4994453;28;20034;-55
2022/08/17 05:43:07;;;;;;;22.30;20.00;;;;;;;22.48;71.50;100942.66;4995903;28;20088;-54
2022/08/17 05:45:35;;;;;;;24.77;20.73;;;;;;;22.51;71.29;100936.50;4999246;28;20105;-55
2022/08/17 05:48:01;;;;;;;23.23;20.52;;;;;;;22.45;71.34;100940.13;4996172;28;20049;-53
2022/08/17 05:50:32;;;;;;;21.42;19.27;;;;;;;22.47;71.99;100942.69;4998716;28;20161;-54
2022/08/17 05:53:26;;;;;;;21.02;18.83;;;;;;;22.61;70.49;100931.94;4998112;28;22059;-54
2022/08/17 05:55:51;;;;;;;19.65;17.52;;;;;;;22.55;70.78;100932.91;4995044;28;20030;-55
2022/08/17 05:58:59;;;;;;;19.88;17.17;;;;;;;22.63;70.41;100932.75;4996977;28;20026;-54
2022/08/17 06:01:39;;;;;;;18.67;16.77;;;;;;;22.59;70.29;100923.25;4980660;28;20077;-50
2022/08/17 06:04:13;;;;;;;18.63;16.63;;;;;;;22.62;70.37;100928.41;4998372;28;20088;-55
2022/08/17 06:06:44;;;;;;;20.00;15.88;;;;;;;22.66;70.33;100935.31;4997043;28;20104;-52
2022/08/17 06:09:12;;;;;;;19.50;16.55;;;;;;;22.66;70.34;100933.56;4995302;28;20049;-54
2022/08/17 06:12:02;;;;;;;19.88;16.17;;;;;;;22.78;69.76;100934.22;4997438;28;20045;-48
2022/08/17 06:14:45;;;;;;;18.63;15.13;;;;;;;22.77;70.14;100938.59;4998884;28;20021;-55
2022/08/17 06:17:17;;;;;;;18.83;15.48;;;;;;;22.80;70.05;100932.41;5001553;28;20065;-52
2022/08/17 06:19:46;;;;;;;17.15;15.38;;;;;;;;;;4998830;28;20160;-52
2022/08/17 06:22:17;;;;;;;16.55;14.68;;;;;;;22.89;69.87;100934.88;4995339;28;20042;-54
2022/08/17 06:25:05;;;;;;;16.23;14.48;;;;;;;22.94;69.53;100948.75;4999689;28;20513;-55
2022/08/17 06:27:39;;;;;;;18.30;15.70;;;;;;;22.91;69.56;100962.78;4994298;28;20061;-53
2022/08/17 06:30:15;;;;;;;17.50;15.25;;;;;;;22.97;69.19;100981.00;4998143;28;20022;-55
2022/08/17 06:32:43;;;;;;;19.17;15.10;;;;;;;22.94;69.77;100981.09;4999707;28;20041;-55
2022/08/17 06:35:11;;;;;;;17.77;15.07;;;;;;;22.93;69.59;100982.00;4997602;28;20099;-55
2022/08/17 06:37:47;;;;;;;19.45;14.98;;;;;;;22.95;69.40;100984.56;4997472;28;20030;-49
2022/08/17 06:40:34;;;;;;;16.73;15.00;;;;;;;22.96;69.23;100987.16;4999654;28;20600;-52
2022/08/17 06:43:39;;;;;;;17.38;15.45;;;;;;;22.90;69.25;100987.28;4995924;28;20040;-54
2022/08/17 06:46:22;;;;;;;19.13;15.70;;;;;;;22.83;69.88;100990.03;4992554;28;20367;-51
2022/08/17 06:48:59;;;;;;;16.38;14.63;;;;;;;22.80;70.17;100987.47;5001788;28;20100;-52
2022/08/17 06:51:39;;;;;;;19.77;15.02;;;;;;;22.86;69.88;100980.31;5000003;28;20033;-54
2022/08/17 06:54:14;;;;;;;16.25;14.57;;;;;;;22.85;69.82;100983.84;5003313;28;20155;-50
2022/08/17 06:56:42;;;;;;;16.83;14.75;;;;;;;22.78;69.83;100984.00;5001556;28;20059;-55
2022/08/17 06:59:12;;;;;;;19.17;15.80;;;;;;;22.76;70.24;100991.91;5002668;28;20149;-53
2022/08/17 07:01:39;;;;;;;18.30;15.50;;;;;;;22.81;70.03;100994.44;5000007;28;20033;-55
2022/08/17 07:04:13;;;;;;;17.73;15.52;;;;;;;22.81;69.57;100987.41;5003331;28;20087;-54
2022/08/17 07:06:56;;;;;;;19.45;15.07;;;;;;;22.80;70.05;100993.56;5001712;28;20076;-54
2022/08/17 07:09:34;;;;;;;18.67;15.52;;;;;;;22.80;69.85;100990.94;5002063;28;20026;-54
2022/08/17 07:12:13;;;;;;;18.52;14.77;;;;;;;;;;4997353;28;20037;-54
2022/08/17 07:14:52;;;;;;;17.60;15.30;;;;;;;22.80;69.46;101001.44;5004162;28;20037;-54
2022/08/17 07:17:19;;;;;;;;;;;;;;;22.95;68.76;101001.16;5002404;28;20552;-53
2022/08/17 07:19:47;;;;;;;18.45;15.65;;;;;;;22.81;69.83;101003.16;5004679;28;20420;-54
2022/08/17 07:22:29;;;;;;;17.08;14.68;;;;;;;22.90;69.60;101007.41;4992619;28;20034;-52
2022/08/17 07:25:01;;;;;;;16.52;14.93;;;;;;;22.87;70.14;101015.31;5002424;28;20030;-49
2022/08/17 07:27:30;;;;;;;18.30;14.95;;;;;;;22.84;69.93;101008.34;5000780;28;20056;-52
2022/08/17 07:30:10;;;;;;;17.52;14.80;;;;;;;22.89;69.94;101009.16;5000179;28;20104;-61
2022/08/17 07:32:40;;;;;;;18.73;14.43;;;;;;;22.88;70.45;101010.06;5000715;28;20540;-53
2022/08/17 07:35:14;;;;;;;18.55;15.27;;;;;;;22.81;69.95;101012.78;5001672;28;20044;-54
2022/08/17 07:37:49;;;;;;;18.17;14.93;;;;;;;22.86;69.93;101014.41;5000484;28;20034;-51
2022/08/17 07:40:37;;;;;;;16.83;15.05;;;;;;;22.90;70.03;101015.25;5003968;28;20018;-52
2022/08/17 07:43:31;;;;;;;16.88;14.93;;;;;;;22.98;69.40;101019.44;4997360;28;20034;-54
2022/08/17 07:49:06;;;;;;;16.30;14.55;;;;;;;22.93;69.41;101023.06;5008214;28;20076;-54
2022/08/17 07:51:34;;;;;;;17.67;15.80;;;;;;;22.92;69.58;101026.56;5002527;28;20402;-54
2022/08/17 07:54:02;;;;;;;18.58;15.05;;;;;;;22.94;69.50;101037.91;4993650;28;20061;-53
2022/08/17 07:56:30;;;;;;;17.40;15.05;;;;;;;22.96;69.15;101034.34;5000379;28;20376;-54
2022/08/17 07:59:06;;;;;;;18.60;15.70;;;;;;;23.01;69.26;101044.75;5002715;28;20095;-53
2022/08/17 08:01:33;;;;;;;20.83;15.40;;;;;;;23.01;69.44;101042.13;5002027;28;20942;-54
2022/08/17 08:03:59;;;;;;;16.52;14.77;;;;;;;22.98;69.50;101040.41;5005235;28;20096;-54
2022/08/17 08:06:25;;;;;;;19.75;16.15;;;;;;;22.97;69.72;101046.56;5006819;28;20052;-51
2022/08/17 08:08:54;;;;;;;17.90;15.95;;;;;;;23.00;69.51;101049.13;5000967;28;20030;-54
2022/08/17 08:11:35;;;;;;;20.45;16.33;;;;;;;23.06;69.40;101057.78;5003799;28;20049;-54
2022/08/17 08:14:32;;;;;;;19.48;15.93;;;;;;;23.09;69.32;101057.72;5001419;28;20030;-55
2022/08/17 08:17:04;;;;;;;22.75;18.02;;;;;;;23.00;69.38;101056.16;5002272;28;20041;-55
2022/08/17 08:19:31;;;;;;;21.52;17.80;;;;;;;23.02;69.40;101051.72;5003642;28;20113;-54
2022/08/17 08:22:11;;;;;;;22.67;17.52;;;;;;;23.07;69.69;101052.50;5002735;28;20034;-54
2022/08/17 08:25:13;;;;;;;21.02;18.27;;;;;;;23.12;69.14;101057.66;5004895;28;20390;-52
2022/08/17 08:28:02;;;;;;;20.70;17.55;;;;;;;23.11;69.02;101054.13;5002420;28;20585;-52
2022/08/17 08:30:30;;;;;;;23.40;18.02;;;;;;;23.08;69.87;101046.34;4999657;28;20495;-54
2022/08/17 08:33:11;;;;;;;21.95;18.77;;;;;;;23.14;69.61;101042.75;5002544;28;20104;-54
2022/08/17 08:35:52;;;;;;;22.67;19.00;;;;;;;23.18;69.09;101032.16;5003301;28;20041;-53
2022/08/17 08:38:28;;;;;;;21.67;18.70;;;;;;;23.21;69.14;101031.22;5005264;28;20026;-54
2022/08/17 08:41:12;;;;;;;21.40;18.92;;;;;;;23.10;69.60;101020.09;5004932;28;20096;-51
2022/08/17 08:43:56;;;;;;;23.98;18.35;;;;;;;23.24;69.04;101008.41;5004439;28;20028;-55
2022/08/17 08:46:34;;;;;;;22.17;18.42;;;;;;;23.23;68.74;100995.31;5004972;28;20026;-53
2022/08/17 08:49:09;;;;;;;21.48;18.48;;;;;;;23.25;68.93;100994.41;5003366;28;20406;-54
2022/08/17 08:51:54;;;;;;;22.63;19.08;;;;;;;23.27;69.12;101013.59;5005657;28;20092;-54
2022/08/17 08:54:57;;;;;;;23.38;20.20;;;;;;;23.24;68.50;101039.03;5006755;28;20559;-54
2022/08/17 08:57:30;;;;;;;26.27;20.13;;;;;;;23.23;69.10;101061.75;5003576;28;22064;-53
2022/08/17 09:00:04;;;;;;;22.15;19.75;;;;;;;23.27;69.17;101073.06;5007262;28;20025;-54
2022/08/17 09:02:54;;;;;;;22.92;20.52;;;;;;;23.30;69.14;101059.91;4998770;28;20038;-55
2022/08/17 09:05:41;;;;;;;23.45;20.90;;;;;;;23.26;69.35;101050.34;5004230;28;20391;-55
2022/08/17 09:08:38;;;;;;;23.15;20.52;;;;;;;23.29;69.17;101043.25;5003518;28;20029;-54
2022/08/17 09:11:21;;;;;;;23.52;20.63;;;;;;;23.35;68.98;101026.53;5004697;28;20033;-52
2022/08/17 09:14:15;;;;;;;24.77;20.73;;;;;;;23.39;68.93;101027.31;5007749;28;20030;-54
2022/08/17 09:16:53;;;;;;;25.67;20.48;;;;;;;23.43;68.95;101024.59;5000408;28;20033;-54
2022/08/17 09:19:32;;;;;;;22.08;19.80;;;;;;;23.49;68.25;101034.97;5003522;28;20542;-55
2022/08/17 09:22:10;;;;;;;24.40;21.90;;;;;;;23.49;68.34;101041.97;5003087;28;20062;-54
2022/08/17 09:24:42;;;;;;;22.80;20.30;;;;;;;23.53;68.27;101041.84;5006537;28;20037;-54
2022/08/17 09:27:14;;;;;;;26.40;21.42;;;;;;;23.54;67.47;101048.84;5004152;28;20277;-55
2022/08/17 09:29:48;;;;;;;24.17;21.65;;;;;;;23.48;67.49;101048.13;5006142;28;20034;-54
2022/08/17 09:32:23;;;;;;;24.08;21.48;;;;;;;23.52;67.53;101049.78;5004683;28;20030;-53
2022/08/17 09:34:53;;;;;;;24.88;20.67;;;;;;;23.53;68.14;101057.59;5004599;28;20026;-51
2022/08/17 09:37:31;;;;;;;27.58;22.75;;;;;;;23.51;67.83;101064.66;4996678;28;20110;-55
2022/08/17 09:40:34;;;;;;;25.27;20.75;;;;;;;23.58;67.59;101056.66;5001864;28;20025;-53
2022/08/17 09:43:26;;;;;;;23.70;20.67;;;;;;;23.51;67.67;101059.41;5001827;28;20046;-53
2022/08/17 09:45:57;;;;;;;26.40;21.02;;;;;;;23.52;68.01;101066.38;5004835;28;20528;-53
2022/08/17 09:48:30;;;;;;;24.40;20.65;;;;;;;23.51;68.25;101075.16;4999358;28;20088;-52
2022/08/17 09:51:19;;;;;;;24.60;20.58;;;;;;;23.56;67.95;101088.19;5001939;28;20038;-55
2022/08/17 09:53:44;;;;;;;;;;;;;;;23.67;67.46;101096.72;5005092;28;20534;-54
2022/08/17 09:56:24;;;;;;;25.92;21.33;;;;;;;23.57;68.06;101100.41;5005123;28;20011;-51
2022/08/17 09:59:18;;;;;;;25.88;21.15;;;;;;;23.53;68.44;101120.59;5004298;28;20034;-54
2022/08/17 10:02:21;;;;;;;25.58;21.30;;;;;;;23.53;69.54;101136.34;5002443;28;20673;-55
2022/08/17 10:05:21;;;;;;;26.90;22.60;;;;;;;23.48;71.65;101140.84;5004707;28;21423;-54
2022/08/17 10:07:59;;;;;;;24.58;21.98;;;;;;;23.43;72.49;101139.22;5003698;28;20160;-55
2022/08/17 10:10:30;;;;;;;27.40;23.17;;;;;;;23.37;75.27;101141.97;4993020;28;21995;-54
2022/08/17 10:13:13;;;;;;;29.38;22.73;;;;;;;23.37;73.79;101140.22;5001554;28;20025;-55
2022/08/17 10:15:47;;;;;;;26.27;23.48;;;;;;;23.31;74.35;101135.09;5003951;28;20545;-53
2022/08/17 10:18:33;;;;;;;27.92;23.35;;;;;;;23.31;74.76;101144.72;5003054;28;20133;-54
2022/08/17 10:26:48;;;;;;;27.17;23.90;;;;;;;23.21;75.79;101146.66;5002892;28;20052;-53
2022/08/17 10:29:27;;;;;;;31.33;25.58;;;;;;;23.24;76.47;101139.59;4999580;28;20065;-52
2022/08/17 10:31:58;;;;;;;;;;;;;;;23.39;74.48;101138.41;5004706;28;20504;-54
2022/08/17 10:34:36;;;;;;;30.75;25.00;;;;;;;23.23;76.14;101147.47;5001718;28;20400;-54
2022/08/17 10:37:08;;;;;;;30.53;25.57;;;;;;;23.18;77.83;101144.09;5001625;28;20037;-53
2022/08/17 10:40:08;;;;;;;28.65;25.02;;;;;;;23.21;77.23;101155.38;5001443;28;20320;-54
2022/08/17 10:42:48;;;;;;;28.10;24.92;;;;;;;23.09;79.11;101149.50;5004936;28;20030;-51
2022/08/17 10:45:17;;;;;;;29.80;25.45;;;;;;;23.08;79.88;101143.41;4994632;28;20386;-54
2022/08/17 10:48:04;;;;;;;31.67;25.05;;;;;;;23.13;79.02;101127.56;4998379;28;20139;-55
2022/08/17 10:50:55;;;;;;;27.50;24.47;;;;;;;23.04;78.65;101114.63;5006749;28;20077;-54
2022/08/17 10:53:48;;;;;;;28.70;24.30;;;;;;;23.01;79.15;101100.69;5001655;28;20795;-50
2022/08/17 10:56:13;;;;;;;27.65;24.40;;;;;;;22.92;80.63;101100.84;5000581;28;20046;-55
2022/08/17 10:58:54;;;;;;;30.55;27.23;;;;;;;22.90;81.03;101094.78;5001113;28;20026;-54
2022/08/17 11:01:42;;;;;;;28.60;25.30;;;;;;;22.95;80.60;101090.31;5001009;28;20026;-55
2022/08/17 11:04:17;;;;;;;31.48;26.85;;;;;;;22.90;81.47;101091.31;5000503;28;20096;-53
2022/08/17 11:07:01;;;;;;;30.25;26.98;;;;;;;22.93;82.02;101081.63;5014078;28;20087;-54
2022/08/17 11:09:44;;;;;;;32.60;27.58;;;;;;;22.95;80.94;101082.44;4999410;28;20029;-52
2022/08/17 11:12:36;;;;;;;29.33;26.10;;;;;;;22.97;80.65;101085.91;4999457;28;20025;-51
2022/08/17 11:15:10;;;;;;;30.63;27.38;;;;;;;22.90;81.64;101086.06;4998067;28;20029;-53
2022/08/17 11:18:10;;;;;;;30.83;26.23;;;;;;;22.93;80.88;101092.13;5002646;28;20029;-55
2022/08/17 11:20:58;;;;;;;30.00;26.90;;;;;;;22.86;80.85;101089.59;5010643;28;20405;-53
2022/08/17 11:23:33;;;;;;;31.17;27.63;;;;;;;22.88;80.76;101091.34;4999220;28;20034;-53
2022/08/17 11:26:02;;;;;;;30.98;27.67;;;;;;;22.81;81.80;101094.06;4996282;28;20673;-53
2022/08/17 11:28:44;;;;;;;31.38;27.85;;;;;;;22.78;81.54;101094.13;4999991;28;20104;-50
2022/08/17 11:31:30;;;;;;;31.00;27.50;;;;;;;22.81;80.69;101100.16;4999439;28;20038;-50
2022/08/17 11:34:06;;;;;;;32.03;28.30;;;;;;;22.76;81.77;101104.66;4993811;28;20081;-53
2022/08/17 11:36:50;;;;;;;30.27;26.95;;;;;;;22.72;82.25;101113.44;4999257;28;20657;-53
2022/08/17 11:39:38;;;;;;;30.90;27.70;;;;;;;;;;5000578;28;20057;-55
2022/08/17 11:42:24;;;;;;;31.50;28.10;;;;;;;22.72;82.87;101118.69;4999337;28;20057;-54
2022/08/17 11:45:32;;;;;;;30.35;27.25;;;;;;;22.80;80.81;101124.66;4999595;28;20049;-54
2022/08/17 11:53:58;;;;;;;29.40;26.33;;;;;;;22.71;81.98;101143.19;4999275;28;20048;-54
2022/08/17 11:56:45;;;;;;;28.98;25.67;;;;;;;22.71;81.54;101145.81;4999624;28;22857;-55
2022/08/17 11:59:29;;;;;;;28.98;25.77;;;;;;;22.68;81.44;101151.09;4999946;28;20013;-56
2022/08/17 12:01:55;;;;;;;30.15;26.98;;;;;;;22.59;82.21;101157.34;5000560;28;20124;-54
2022/08/17 12:04:28;;;;;;;30.75;25.33;;;;;;;22.61;82.63;101173.91;4996380;28;20032;-54
2022/08/17 12:06:59;;;;;;;32.85;26.27;;;;;;;22.56;83.11;101169.63;4999083;28;20044;-55
2022/08/17 12:09:29;;;;;;;28.35;25.35;;;;;;;22.58;82.60;101173.13;5004069;28;20034;-53